Time;durP1;ratioP1;P1;durP2;ratioP2;P2;SDS_P1;SDS_P2;PMS_P1;PMS_P2;Temp;Humidity;BMP_temperature;BMP_pressure;BME280_temperature;BME280_humidity;BME280_pressure;Samples;Min_cycle;Max_cycle;Signal;HPM_P1;HPM_P2
2023/04/15 00:01:22;;;;;;;12.90;5.03;;;7.90;99.90;;;;;;5155132;27;20069;-59
2023/04/15 00:03:51;;;;;;;9.55;5.10;;;7.90;99.90;;;;;;5154671;27;20117;-59
2023/04/15 00:06:18;;;;;;;12.70;5.47;;;7.90;99.90;;;;;;5155142;27;20031;-60
2023/04/15 00:08:44;;;;;;;10.23;6.03;;;7.90;99.90;;;;;;5155242;27;20035;-60
2023/04/15 00:11:10;;;;;;;10.25;5.60;;;7.80;99.90;;;;;;5155169;27;20368;-59
2023/04/15 00:13:36;;;;;;;10.38;5.88;;;7.80;99.90;;;;;;5155030;27;20118;-59
2023/04/15 00:16:02;;;;;;;18.85;6.18;;;7.90;99.90;;;;;;5155022;27;20050;-59
2023/04/15 00:18:28;;;;;;;11.52;6.57;;;7.80;99.90;;;;;;5136606;27;20030;-59
2023/04/15 00:20:54;;;;;;;13.73;6.70;;;7.80;99.90;;;;;;5155140;27;20540;-59
2023/04/15 00:23:20;;;;;;;10.75;5.82;;;7.80;99.90;;;;;;5136103;27;20125;-59
2023/04/15 00:25:46;;;;;;;12.32;6.30;;;7.80;99.90;;;;;;5154444;27;20078;-59
2023/04/15 00:28:12;;;;;;;8.80;5.80;;;7.80;99.90;;;;;;5154964;27;20110;-59
2023/04/15 00:30:38;;;;;;;8.38;5.95;;;7.80;99.90;;;;;;5118879;27;20041;-59
2023/04/15 00:33:04;;;;;;;11.63;6.40;;;7.80;99.90;;;;;;5154550;27;20046;-59
2023/04/15 00:35:33;;;;;;;14.75;6.22;;;7.80;99.90;;;;;;5154785;27;20081;-59
2023/04/15 00:37:59;;;;;;;15.15;7.10;;;7.70;99.90;;;;;;5154334;27;20041;-59
2023/04/15 00:40:25;;;;;;;9.60;5.90;;;7.70;99.90;;;;;;5135761;27;20047;-60
2023/04/15 00:42:51;;;;;;;11.30;6.30;;;7.70;99.90;;;;;;5154433;27;20039;-60
2023/04/15 00:45:17;;;;;;;10.32;6.57;;;7.70;99.90;;;;;;5141632;27;20043;-59
2023/04/15 00:47:44;;;;;;;12.25;6.93;;;7.70;99.90;;;;;;5133451;27;20042;-60
2023/04/15 00:50:12;;;;;;;11.82;6.68;;;7.70;99.90;;;;;;5133711;27;20035;-60
2023/04/15 00:52:38;;;;;;;13.35;6.97;;;7.60;99.90;;;;;;5133534;27;20035;-59
2023/04/15 00:55:05;;;;;;;11.40;6.40;;;7.60;99.90;;;;;;5133948;27;20039;-59
2023/04/15 00:57:32;;;;;;;11.05;7.03;;;7.60;99.90;;;;;;5133583;27;20039;-59
2023/04/15 00:59:57;;;;;;;11.10;6.63;;;7.60;99.90;;;;;;5133456;27;20118;-59
2023/04/15 01:02:23;;;;;;;12.18;6.45;;;7.50;99.90;;;;;;5115387;27;20126;-59
2023/04/15 01:04:49;;;;;;;11.20;7.63;;;7.60;99.90;;;;;;5133284;27;20130;-59
2023/04/15 01:07:15;;;;;;;15.38;7.63;;;7.50;99.90;;;;;;5115087;27;20066;-59
2023/04/15 01:09:41;;;;;;;12.35;7.28;;;7.50;99.90;;;;;;5133497;27;20042;-59
2023/04/15 01:12:10;;;;;;;13.82;7.57;;;7.50;99.90;;;;;;5115193;27;20100;-59
2023/04/15 01:14:36;;;;;;;14.20;7.70;;;7.50;99.90;;;;;;5133288;27;20042;-59
2023/04/15 01:17:02;;;;;;;10.77;7.50;;;7.40;99.90;;;;;;5133215;28;20039;-59
2023/04/15 01:19:28;;;;;;;11.90;7.57;;;7.40;99.90;;;;;;5133087;28;20400;-59
2023/04/15 01:21:54;;;;;;;11.80;7.45;;;7.30;99.90;;;;;;5133070;28;20047;-59
2023/04/15 01:24:20;;;;;;;14.45;7.82;;;7.30;99.90;;;;;;5133150;28;20045;-59
2023/04/15 01:26:46;;;;;;;10.45;7.38;;;7.30;99.90;;;;;;5152642;27;20110;-59
2023/04/15 01:29:12;;;;;;;12.65;7.75;;;7.30;99.90;;;;;;5154286;27;20093;-59
2023/04/15 01:31:37;;;;;;;11.13;6.90;;;7.20;99.90;;;;;;5154215;27;20039;-59
2023/04/15 01:34:03;;;;;;;12.63;8.00;;;7.20;99.90;;;;;;5153940;27;20165;-60
2023/04/15 01:36:29;;;;;;;11.90;7.63;;;7.10;99.90;;;;;;5154146;27;20081;-60
2023/04/15 01:38:56;;;;;;;14.35;7.35;;;7.10;99.90;;;;;;5157045;27;20425;-60
2023/04/15 01:41:28;;;;;;;15.15;8.10;;;7.10;99.90;;;;;;5139533;27;20054;-59
2023/04/15 01:43:54;;;;;;;11.45;7.72;;;7.10;99.90;;;;;;5158079;27;20125;-59
2023/04/15 01:46:20;;;;;;;14.10;8.13;;;7.10;99.90;;;;;;5157866;27;20118;-59
2023/04/15 01:48:46;;;;;;;12.25;7.95;;;7.10;99.90;;;;;;5157911;27;20125;-59
2023/04/15 01:51:11;;;;;;;12.15;8.07;;;7.00;99.90;;;;;;5157877;27;20042;-59
2023/04/15 01:53:37;;;;;;;10.10;7.53;;;7.00;99.90;;;;;;5157905;27;20038;-59
2023/04/15 01:56:03;;;;;;;11.77;8.02;;;7.00;99.90;;;;;;5157764;27;20050;-59
2023/04/15 01:58:29;;;;;;;12.30;8.02;;;7.00;99.90;;;;;;5158193;27;20039;-59
2023/04/15 02:00:55;;;;;;;14.35;7.72;;;7.00;99.90;;;;;;5158007;27;20384;-59
2023/04/15 02:03:21;;;;;;;10.80;7.88;;;6.90;99.90;;;;;;5157687;27;20034;-59
2023/04/15 02:05:46;;;;;;;12.32;8.35;;;7.00;99.90;;;;;;5157703;27;20054;-59
2023/04/15 02:08:12;;;;;;;11.98;8.63;;;6.90;99.90;;;;;;5157368;27;20388;-59
2023/04/15 02:10:38;;;;;;;14.98;8.63;;;6.90;99.90;;;;;;5138811;27;20066;-59
2023/04/15 02:13:04;;;;;;;12.75;8.85;;;6.90;99.90;;;;;;5138596;27;20110;-59
2023/04/15 02:15:29;;;;;;;13.30;8.30;;;6.90;99.90;;;;;;5157507;27;20030;-59
2023/04/15 02:17:55;;;;;;;13.80;8.15;;;6.90;99.90;;;;;;5157402;27;20377;-59
2023/04/15 02:20:22;;;;;;;11.98;8.30;;;6.90;99.90;;;;;;5157533;27;20048;-59
2023/04/15 02:22:48;;;;;;;12.18;8.25;;;6.90;99.90;;;;;;5138668;27;20055;-59
2023/04/15 02:25:15;;;;;;;11.13;8.30;;;6.90;99.90;;;;;;5157524;27;20400;-59
2023/04/15 02:27:42;;;;;;;21.88;9.05;;;6.90;99.90;;;;;;5157300;27;20042;-59
2023/04/15 02:30:08;;;;;;;12.88;8.48;;;6.80;99.90;;;;;;5138642;27;20039;-59
2023/04/15 02:32:33;;;;;;;11.90;8.13;;;6.80;99.90;;;;;;5157201;27;20042;-59
2023/04/15 02:35:04;;;;;;;14.43;8.32;;;6.80;99.90;;;;;;5143697;27;20051;-59
2023/04/15 02:37:30;;;;;;;13.57;8.65;;;6.80;99.90;;;;;;5136362;27;20039;-59
2023/04/15 02:39:56;;;;;;;12.65;8.95;;;6.70;99.90;;;;;;5118049;27;20488;-59
2023/04/15 02:42:22;;;;;;;12.13;8.68;;;6.70;99.90;;;;;;5136392;27;20039;-59
2023/04/15 02:44:47;;;;;;;12.13;9.10;;;6.70;99.90;;;;;;5136321;27;20043;-59
2023/04/15 02:47:14;;;;;;;17.52;9.70;;;6.70;99.90;;;;;;5136446;27;20043;-60
2023/04/15 02:49:40;;;;;;;11.48;8.95;;;6.70;99.90;;;;;;5135826;27;20039;-60
2023/04/15 02:52:06;;;;;;;13.07;9.07;;;6.70;99.90;;;;;;5136226;27;20035;-59
2023/04/15 02:54:32;;;;;;;15.85;9.90;;;6.70;99.90;;;;;;5135837;27;20469;-59
2023/04/15 02:56:58;;;;;;;12.27;8.52;;;6.70;99.90;;;;;;5117612;27;20504;-59
2023/04/15 02:59:24;;;;;;;11.35;9.60;;;6.70;99.90;;;;;;5136172;27;20035;-59
2023/04/15 03:01:50;;;;;;;14.18;8.77;;;6.60;99.90;;;;;;5136053;27;20080;-59
2023/04/15 03:04:15;;;;;;;14.88;8.77;;;6.60;99.90;;;;;;5117372;27;20434;-59
2023/04/15 03:06:41;;;;;;;12.80;9.43;;;6.60;99.90;;;;;;5117278;27;20075;-59
2023/04/15 03:09:07;;;;;;;13.77;9.20;;;6.60;99.90;;;;;;5135883;27;20031;-59
2023/04/15 03:11:35;;;;;;;12.05;9.38;;;6.50;99.90;;;;;;5117600;27;20082;-58
2023/04/15 03:14:01;;;;;;;13.82;9.82;;;6.70;99.90;;;;;;5135884;27;20042;-59
2023/04/15 03:16:27;;;;;;;13.38;9.70;;;6.40;99.90;;;;;;5117477;27;20042;-59
2023/04/15 03:18:52;;;;;;;16.02;11.80;;;6.50;99.90;;;;;;5135349;27;20092;-59
2023/04/15 03:21:18;;;;;;;15.95;11.52;;;6.50;99.90;;;;;;5135690;27;20115;-59
2023/04/15 03:23:44;;;;;;;16.75;11.25;;;6.50;99.90;;;;;;5135431;27;20071;-58
2023/04/15 03:26:31;;;;;;;15.55;11.43;;;6.40;99.90;;;;;;5135717;27;20043;-59
2023/04/15 03:28:57;;;;;;;14.00;10.15;;;6.40;99.90;;;;;;5135738;27;20039;-59
2023/04/15 03:31:23;;;;;;;18.08;10.35;;;6.40;99.90;;;;;;5135398;27;20380;-59
2023/04/15 03:33:49;;;;;;;15.00;11.32;;;6.40;99.90;;;;;;5151817;27;20500;-59
2023/04/15 03:36:15;;;;;;;15.13;10.80;;;6.30;99.90;;;;;;5156361;27;20042;-59
2023/04/15 03:38:41;;;;;;;15.50;11.05;;;6.30;99.90;;;;;;5155813;27;20472;-58
2023/04/15 03:41:08;;;;;;;15.63;10.30;;;6.30;99.90;;;;;;5155656;27;20034;-58
2023/04/15 03:43:34;;;;;;;16.77;12.23;;;6.40;99.90;;;;;;5155535;27;20054;-58
2023/04/15 03:46:00;;;;;;;17.75;11.00;;;6.30;99.90;;;;;;5155374;27;20035;-58
2023/04/15 03:48:26;;;;;;;20.90;12.82;;;6.20;99.90;;;;;;5155450;27;20031;-58
2023/04/15 03:50:52;;;;;;;17.85;12.80;;;6.20;99.90;;;;;;5154930;27;20514;-58
2023/04/15 03:53:18;;;;;;;15.60;11.55;;;6.20;99.90;;;;;;5155226;27;20054;-59
2023/04/15 03:55:43;;;;;;;15.52;11.63;;;6.30;99.90;;;;;;5155296;27;20422;-60
2023/04/15 03:58:11;;;;;;;18.98;12.48;;;6.30;99.90;;;;;;5155240;27;20070;-59
2023/04/15 04:00:37;;;;;;;16.83;12.02;;;6.30;99.90;;;;;;5153836;27;20041;-58
2023/04/15 04:03:03;;;;;;;15.60;11.38;;;6.30;99.90;;;;;;5155325;27;20038;-59
2023/04/15 04:05:29;;;;;;;16.38;11.88;;;6.30;99.90;;;;;;5155247;27;20042;-59
2023/04/15 04:07:55;;;;;;;13.82;11.35;;;6.30;99.90;;;;;;5155209;27;20031;-58
2023/04/15 04:10:20;;;;;;;14.85;10.70;;;6.30;99.90;;;;;;5149401;27;20034;-58
2023/04/15 04:12:46;;;;;;;14.27;11.38;;;6.30;99.90;;;;;;5155257;27;20372;-59
2023/04/15 04:15:12;;;;;;;16.05;11.57;;;6.20;99.90;;;;;;5154992;27;20476;-59
2023/04/15 04:17:37;;;;;;;17.40;12.65;;;6.30;99.90;;;;;;5136600;27;20416;-59
2023/04/15 04:20:04;;;;;;;18.73;12.57;;;6.30;99.90;;;;;;5136586;27;20039;-58
2023/04/15 04:22:30;;;;;;;18.30;12.82;;;6.30;99.90;;;;;;5155062;27;20432;-59
2023/04/15 04:24:58;;;;;;;21.75;13.40;;;6.30;99.90;;;;;;5136036;27;20051;-59
2023/04/15 04:27:23;;;;;;;18.77;14.10;;;6.30;99.90;;;;;;5154865;27;20042;-59
2023/04/15 04:29:49;;;;;;;17.20;12.90;;;6.20;99.90;;;;;;5136670;27;20043;-59
2023/04/15 04:32:15;;;;;;;19.65;13.50;;;6.30;99.90;;;;;;5139639;27;20031;-59
2023/04/15 04:34:40;;;;;;;17.75;12.95;;;6.20;99.90;;;;;;5151083;27;20065;-59
2023/04/15 04:37:06;;;;;;;19.67;13.38;;;6.30;99.90;;;;;;5134304;27;20122;-59
2023/04/15 04:39:31;;;;;;;17.08;12.93;;;6.20;99.90;;;;;;5143177;27;20099;-59
2023/04/15 04:41:57;;;;;;;18.02;12.55;;;6.20;99.90;;;;;;5135352;27;20506;-59
2023/04/15 04:44:23;;;;;;;19.30;12.45;;;6.20;99.90;;;;;;5139461;27;20051;-59
2023/04/15 04:46:48;;;;;;;18.15;12.30;;;6.10;99.90;;;;;;5154460;27;20429;-60
2023/04/15 04:49:14;;;;;;;17.17;12.30;;;6.00;99.90;;;;;;5149127;27;20035;-59
2023/04/15 04:51:40;;;;;;;17.00;12.80;;;6.00;99.90;;;;;;5150691;27;20125;-59
2023/04/15 04:54:05;;;;;;;16.65;12.60;;;6.20;99.90;;;;;;5151446;27;20383;-59
2023/04/15 04:56:33;;;;;;;14.07;11.73;;;6.10;99.90;;;;;;5153881;27;20043;-60
2023/04/15 04:58:58;;;;;;;15.75;11.48;;;6.10;99.90;;;;;;5154079;27;20537;-59
2023/04/15 05:01:26;;;;;;;19.40;12.80;;;6.10;99.90;;;;;;5115205;27;20043;-59
2023/04/15 05:03:52;;;;;;;14.98;12.13;;;6.10;99.90;;;;;;5121940;27;20118;-59
2023/04/15 05:06:17;;;;;;;15.80;11.15;;;6.00;99.90;;;;;;5153742;27;20130;-60
2023/04/15 05:08:43;;;;;;;18.38;12.27;;;6.00;99.90;;;;;;5154206;27;20060;-58
2023/04/15 05:11:09;;;;;;;15.32;11.75;;;6.00;99.90;;;;;;5152663;27;20544;-60
2023/04/15 05:13:37;;;;;;;13.85;10.77;;;6.00;99.90;;;;;;5153765;27;20029;-59
2023/04/15 05:16:04;;;;;;;15.77;11.60;;;6.00;99.90;;;;;;5144952;27;20043;-59
2023/04/15 05:18:30;;;;;;;16.45;12.13;;;6.00;99.90;;;;;;5145501;27;20121;-59
2023/04/15 05:20:55;;;;;;;14.65;11.15;;;6.10;99.90;;;;;;5154003;27;20110;-59
2023/04/15 05:23:21;;;;;;;14.02;11.07;;;6.10;99.90;;;;;;5136711;27;20716;-59
2023/04/15 05:25:47;;;;;;;19.15;11.90;;;6.10;99.90;;;;;;5154084;27;20544;-59
2023/04/15 05:28:12;;;;;;;14.80;11.65;;;6.20;99.90;;;;;;5143599;27;20448;-58
2023/04/15 05:30:38;;;;;;;14.57;11.48;;;6.20;99.90;;;;;;5114212;28;20119;-58
2023/04/15 05:33:04;;;;;;;16.98;12.45;;;6.30;99.90;;;;;;5146020;27;20030;-59
2023/04/15 05:35:30;;;;;;;18.80;12.70;;;6.40;99.90;;;;;;5141747;27;20050;-59
2023/04/15 05:37:55;;;;;;;16.90;12.40;;;6.40;99.90;;;;;;5145927;27;20032;-59
2023/04/15 05:40:21;;;;;;;15.90;12.32;;;6.50;99.90;;;;;;5124533;27;20039;-59
2023/04/15 05:42:47;;;;;;;17.52;12.50;;;6.40;99.90;;;;;;5148202;27;20038;-59
2023/04/15 05:45:13;;;;;;;17.95;12.68;;;6.60;99.90;;;;;;5136627;27;20035;-59
2023/04/15 05:47:38;;;;;;;17.55;12.88;;;6.70;99.90;;;;;;5149343;27;20034;-59
2023/04/15 05:50:05;;;;;;;17.13;12.82;;;6.80;99.90;;;;;;5153845;27;20035;-59
2023/04/15 05:52:31;;;;;;;16.25;11.90;;;6.90;99.90;;;;;;5152357;27;20492;-59
2023/04/15 05:54:56;;;;;;;14.63;11.80;;;7.00;99.90;;;;;;5133055;28;20054;-59
2023/04/15 05:57:22;;;;;;;19.15;12.23;;;7.00;99.90;;;;;;5114734;28;20434;-59
2023/04/15 05:59:50;;;;;;;18.17;12.27;;;7.10;99.90;;;;;;5133242;28;20115;-59
2023/04/15 06:02:16;;;;;;;14.00;11.10;;;7.20;99.90;;;;;;5133084;28;20039;-59
2023/04/15 06:04:41;;;;;;;16.52;11.70;;;7.40;99.90;;;;;;5114487;28;20045;-59
2023/04/15 06:07:07;;;;;;;15.40;11.85;;;7.40;99.90;;;;;;5080753;28;20043;-59
2023/04/15 06:09:33;;;;;;;16.67;12.05;;;7.50;99.90;;;;;;5133032;28;20071;-60
2023/04/15 06:12:00;;;;;;;17.08;12.07;;;7.60;99.90;;;;;;5114309;28;20047;-59
2023/04/15 06:14:26;;;;;;;15.52;11.73;;;7.70;99.90;;;;;;5133287;28;20047;-59
2023/04/15 06:16:52;;;;;;;15.48;11.40;;;7.80;99.90;;;;;;5132883;28;20790;-59
2023/04/15 06:19:18;;;;;;;17.45;12.23;;;7.90;99.90;;;;;;5133960;27;20084;-59
2023/04/15 06:21:44;;;;;;;15.48;11.32;;;8.00;99.90;;;;;;5114459;28;20038;-59
2023/04/15 06:24:10;;;;;;;13.80;10.80;;;8.00;99.90;;;;;;5115963;27;20047;-59
2023/04/15 06:26:36;;;;;;;14.65;11.10;;;8.20;99.90;;;;;;5136683;27;20399;-59
2023/04/15 06:29:02;;;;;;;14.32;10.63;;;8.30;99.90;;;;;;5117842;27;20031;-59
2023/04/15 06:31:27;;;;;;;14.95;9.98;;;8.50;99.90;;;;;;5136846;27;20034;-59
2023/04/15 06:33:53;;;;;;;13.00;10.27;;;8.50;99.90;;;;;;5117501;27;20061;-59
2023/04/15 06:36:19;;;;;;;14.43;10.13;;;8.60;99.90;;;;;;5136604;27;20441;-59
2023/04/15 06:38:44;;;;;;;15.73;10.65;;;8.70;99.90;;;;;;5136181;27;20118;-59
2023/04/15 06:41:10;;;;;;;12.63;10.00;;;8.70;99.90;;;;;;5135962;27;20051;-59
2023/04/15 06:43:36;;;;;;;14.02;10.63;;;8.90;99.90;;;;;;5136173;27;20039;-59
2023/04/15 06:46:01;;;;;;;16.13;9.82;;;9.00;99.90;;;;;;5136509;27;20114;-59
2023/04/15 06:48:27;;;;;;;13.63;10.68;;;9.20;99.90;;;;;;5136357;27;20031;-59
2023/04/15 06:50:53;;;;;;;16.05;9.75;;;9.20;99.90;;;;;;5136097;27;20428;-59
2023/04/15 06:53:19;;;;;;;14.85;9.45;;;9.30;99.90;;;;;;5128701;27;20030;-60
2023/04/15 06:55:44;;;;;;;12.57;9.27;;;9.30;99.90;;;;;;5135550;27;20065;-60
2023/04/15 06:58:10;;;;;;;17.60;9.88;;;9.30;99.90;;;;;;5156353;27;20556;-59
2023/04/15 07:00:37;;;;;;;11.75;9.85;;;9.40;99.90;;;;;;5153955;27;20112;-60
2023/04/15 07:03:03;;;;;;;12.20;10.27;;;9.40;99.90;;;;;;5151793;27;20042;-59
2023/04/15 07:05:29;;;;;;;17.40;10.57;;;9.40;99.90;;;;;;5146428;27;20087;-60
2023/04/15 07:07:56;;;;;;;13.13;8.98;;;9.40;99.90;;;;;;5149389;27;20480;-60
2023/04/15 07:10:21;;;;;;;11.52;9.27;;;9.40;99.90;;;;;;5145013;27;20118;-60
2023/04/15 07:12:49;;;;;;;13.05;9.07;;;9.40;99.90;;;;;;5148137;27;20113;-59
2023/04/15 07:15:15;;;;;;;14.57;9.38;;;9.40;99.90;;;;;;5146712;27;20038;-59
2023/04/15 07:17:44;;;;;;;13.18;9.15;;;9.50;99.90;;;;;;5143151;27;20423;-59
2023/04/15 07:20:11;;;;;;;14.20;8.40;;;9.50;99.90;;;;;;5152702;27;20519;-58
2023/04/15 07:22:37;;;;;;;11.40;8.90;;;9.50;99.90;;;;;;5155501;27;20035;-58
2023/04/15 07:25:03;;;;;;;10.27;8.25;;;9.60;99.90;;;;;;5145466;27;20137;-59
2023/04/15 07:27:29;;;;;;;10.57;8.40;;;9.60;99.90;;;;;;5126478;27;20042;-58
2023/04/15 07:29:55;;;;;;;11.50;6.75;;;9.60;99.90;;;;;;5144340;27;20066;-60
2023/04/15 07:32:21;;;;;;;12.60;6.20;;;9.70;99.90;;;;;;5146404;27;20065;-58
2023/04/15 07:34:47;;;;;;;12.32;6.95;;;9.60;99.90;;;;;;5142581;27;20051;-58
2023/04/15 07:37:14;;;;;;;9.55;6.05;;;9.70;99.90;;;;;;5145267;27;20075;-60
2023/04/15 07:39:40;;;;;;;8.75;5.88;;;9.70;99.90;;;;;;5145352;27;20109;-59
2023/04/15 07:42:06;;;;;;;9.27;5.75;;;9.70;99.90;;;;;;5125414;27;20047;-60
2023/04/15 07:44:32;;;;;;;10.68;6.18;;;9.70;99.90;;;;;;5125433;27;20050;-59
2023/04/15 07:46:57;;;;;;;12.70;5.55;;;9.70;99.90;;;;;;5125466;27;20117;-60
2023/04/15 07:49:23;;;;;;;10.75;5.55;;;9.80;99.90;;;;;;5144755;27;20054;-59
2023/04/15 07:51:49;;;;;;;11.68;6.28;;;9.80;99.90;;;;;;5142783;27;20027;-58
2023/04/15 07:54:15;;;;;;;8.55;6.22;;;9.80;99.90;;;;;;5145397;27;20039;-58
2023/04/15 07:56:41;;;;;;;6.70;5.05;;;9.80;99.90;;;;;;5143238;27;20030;-58
2023/04/15 07:59:08;;;;;;;10.32;6.05;;;9.80;99.90;;;;;;5127020;27;20034;-60
2023/04/15 08:01:34;;;;;;;9.13;5.80;;;9.80;99.90;;;;;;5124324;27;20078;-58
2023/04/15 08:04:00;;;;;;;9.50;6.13;;;9.90;99.90;;;;;;5142655;27;20487;-58
2023/04/15 08:06:26;;;;;;;7.03;5.15;;;9.80;99.90;;;;;;5126105;27;20033;-58
2023/04/15 08:08:53;;;;;;;9.80;6.57;;;9.80;99.90;;;;;;5141867;27;20090;-58
2023/04/15 08:11:19;;;;;;;9.13;5.68;;;9.80;99.90;;;;;;5127147;27;20110;-58
2023/04/15 08:13:45;;;;;;;10.70;5.97;;;9.80;99.90;;;;;;5144411;27;20105;-58
2023/04/15 08:16:22;;;;;;;10.95;6.13;;;9.80;99.90;;;;;;5144562;27;20030;-58
2023/04/15 08:18:49;;;;;;;6.53;4.13;;;9.80;99.90;;;;;;5142483;27;20070;-58
2023/04/15 08:21:15;;;;;;;9.35;4.82;;;9.80;99.90;;;;;;5142489;27;20035;-58
2023/04/15 08:23:42;;;;;;;6.20;4.32;;;9.80;99.90;;;;;;5153652;27;20049;-58
2023/04/15 08:26:08;;;;;;;7.78;4.20;;;9.80;99.90;;;;;;5154504;27;20110;-58
2023/04/15 08:28:34;;;;;;;6.82;4.60;;;9.80;99.90;;;;;;5154125;27;20462;-58
2023/04/15 08:31:00;;;;;;;7.95;4.55;;;9.60;99.90;;;;;;5148781;27;20118;-58
2023/04/15 08:33:27;;;;;;;7.20;3.80;;;9.70;99.90;;;;;;5147968;27;20114;-58
2023/04/15 08:35:53;;;;;;;6.45;3.90;;;9.80;99.90;;;;;;5145011;27;20096;-58
2023/04/15 08:38:19;;;;;;;6.82;3.78;;;9.80;99.90;;;;;;5146563;27;20042;-58
2023/04/15 08:40:45;;;;;;;6.72;3.00;;;9.70;99.90;;;;;;5147059;27;20633;-58
2023/04/15 08:43:27;;;;;;;8.18;3.78;;;9.70;99.90;;;;;;5141698;27;20061;-58
2023/04/15 08:45:53;;;;;;;6.00;3.05;;;9.70;99.90;;;;;;5141816;27;20114;-58
2023/04/15 08:48:20;;;;;;;3.60;2.28;;;9.70;99.90;;;;;;5143685;27;20503;-58
2023/04/15 08:50:46;;;;;;;13.38;4.28;;;9.70;99.90;;;;;;5142819;27;20031;-58
2023/04/15 08:53:13;;;;;;;5.38;2.80;;;9.60;99.90;;;;;;5143374;27;20030;-57
2023/04/15 08:55:49;;;;;;;5.13;3.08;;;9.70;99.90;;;;;;5142415;27;20039;-58
2023/04/15 08:58:15;;;;;;;5.00;2.47;;;9.70;99.90;;;;;;5145819;27;20078;-58
2023/04/15 09:00:41;;;;;;;7.68;2.63;;;9.70;99.90;;;;;;5142735;27;20093;-58
2023/04/15 09:03:07;;;;;;;3.83;2.20;;;9.70;99.90;;;;;;5130302;27;20519;-58
2023/04/15 09:05:34;;;;;;;6.22;2.97;;;9.70;99.90;;;;;;5149284;27;20149;-58
2023/04/15 09:08:01;;;;;;;6.47;2.28;;;9.70;99.90;;;;;;5149628;27;20031;-58
2023/04/15 09:10:27;;;;;;;3.85;2.28;;;9.60;99.90;;;;;;5148815;27;20035;-57
2023/04/15 09:12:54;;;;;;;6.18;2.13;;;9.60;99.90;;;;;;5130519;27;20050;-58
2023/04/15 09:15:19;;;;;;;7.22;2.38;;;9.60;99.90;;;;;;5151376;27;20091;-58
2023/04/15 09:17:46;;;;;;;5.85;2.22;;;9.60;99.90;;;;;;5141077;27;20035;-58
2023/04/15 09:20:13;;;;;;;7.13;2.60;;;9.60;99.90;;;;;;5141924;27;20030;-58
2023/04/15 09:22:40;;;;;;;8.40;2.67;;;9.60;99.90;;;;;;5143232;27;20171;-57
2023/04/15 09:25:15;;;;;;;5.47;2.58;;;9.70;99.90;;;;;;5140106;27;20031;-58
2023/04/15 09:27:56;;;;;;;5.07;2.47;;;9.70;99.90;;;;;;5124687;27;20137;-58
2023/04/15 09:30:22;;;;;;;3.75;2.20;;;9.70;99.90;;;;;;5143279;27;20485;-59
2023/04/15 09:32:55;;;;;;;4.82;1.90;;;9.70;99.90;;;;;;5140347;27;20035;-59
2023/04/15 09:35:23;;;;;;;5.78;1.90;;;9.70;99.90;;;;;;5143491;27;20047;-58
2023/04/15 09:37:49;;;;;;;4.28;2.20;;;9.70;99.90;;;;;;5107660;27;20122;-58
2023/04/15 09:40:34;;;;;;;7.18;2.40;;;9.70;99.90;;;;;;5124291;27;20046;-61
2023/04/15 09:43:01;;;;;;;4.97;2.15;;;9.70;99.90;;;;;;5140487;27;20046;-58
2023/04/15 09:45:28;;;;;;;7.75;1.92;;;9.80;99.90;;;;;;5145890;27;20058;-58
2023/04/15 09:47:53;;;;;;;3.47;1.75;;;9.80;99.90;;;;;;5135169;27;20550;-58
2023/04/15 09:50:19;;;;;;;4.63;2.00;;;10.00;99.90;;;;;;5140026;27;20027;-58
2023/04/15 09:52:46;;;;;;;3.03;1.58;;;10.10;99.90;;;;;;5122214;27;20481;-58
2023/04/15 09:55:12;;;;;;;3.05;1.85;;;10.10;99.90;;;;;;5142208;27;20027;-61
2023/04/15 09:57:43;;;;;;;5.57;1.67;;;10.20;99.90;;;;;;5142937;27;20047;-60
2023/04/15 10:00:10;;;;;;;2.95;1.55;;;10.10;99.90;;;;;;5128054;27;20046;-61
2023/04/15 10:02:36;;;;;;;3.17;1.35;;;10.20;99.90;;;;;;5148634;27;20084;-60
2023/04/15 10:05:03;;;;;;;4.30;1.67;;;10.20;99.90;;;;;;5147205;27;20069;-60
2023/04/15 10:07:29;;;;;;;2.30;1.30;;;10.10;99.90;;;;;;5128387;27;20504;-58
2023/04/15 10:09:57;;;;;;;3.00;1.50;;;10.20;99.90;;;;;;5144834;27;20388;-58
2023/04/15 10:12:23;;;;;;;1.85;1.40;;;10.20;99.90;;;;;;5146285;27;20031;-58
2023/04/15 10:14:55;;;;;;;3.67;1.48;;;10.20;99.90;;;;;;5144874;27;20123;-59
2023/04/15 10:17:22;;;;;;;5.00;1.65;;;10.20;99.90;;;;;;5144438;27;20071;-59
2023/04/15 10:19:48;;;;;;;6.68;2.58;;;10.20;99.90;;;;;;5145888;27;20069;-58
2023/04/15 10:22:15;;;;;;;4.15;1.80;;;10.20;99.90;;;;;;5145275;27;20122;-58
2023/04/15 10:24:42;;;;;;;4.43;2.63;;;10.10;99.90;;;;;;5125638;27;20051;-58
2023/04/15 10:27:08;;;;;;;4.40;1.65;;;10.10;99.90;;;;;;5148878;27;20126;-58
2023/04/15 10:29:33;;;;;;;3.33;1.50;;;10.10;99.90;;;;;;5145425;27;20821;-58
2023/04/15 10:32:00;;;;;;;3.85;1.92;;;10.00;99.90;;;;;;5139021;27;20046;-58
2023/04/15 10:34:26;;;;;;;8.35;2.30;;;10.10;99.90;;;;;;5135769;27;20100;-58
2023/04/15 10:37:00;;;;;;;6.47;1.92;;;10.00;99.90;;;;;;5135836;27;20054;-59
2023/04/15 10:39:32;;;;;;;3.28;1.95;;;10.20;99.90;;;;;;5117762;27;20043;-58
2023/04/15 10:42:23;;;;;;;9.05;2.30;;;10.00;99.90;;;;;;5135905;27;20362;-59
2023/04/15 10:44:51;;;;;;;6.32;1.90;;;10.00;99.90;;;;;;5113219;27;20047;-58
2023/04/15 10:47:20;;;;;;;5.28;2.05;;;10.10;99.90;;;;;;5117615;27;20081;-58
2023/04/15 10:49:51;;;;;;;5.88;2.20;;;10.00;99.90;;;;;;5135782;27;20039;-58
2023/04/15 10:52:26;;;;;;;6.47;2.08;;;10.10;99.90;;;;;;5117264;27;20122;-58
2023/04/15 10:55:17;;;;;;;5.60;1.80;;;10.20;99.90;;;;;;5135568;27;20071;-58
2023/04/15 10:57:43;;;;;;;9.43;3.05;;;10.20;99.90;;;;;;5117046;27;20043;-57
2023/04/15 11:00:12;;;;;;;4.70;2.10;;;10.20;99.90;;;;;;5120392;27;20146;-58
2023/04/15 11:02:39;;;;;;;10.63;2.17;;;10.20;99.90;;;;;;5137626;27;20118;-59
2023/04/15 11:05:06;;;;;;;5.53;1.80;;;10.20;99.90;;;;;;5137306;27;20121;-58
2023/04/15 11:07:55;;;;;;;5.70;1.92;;;10.30;99.90;;;;;;5137389;27;20524;-58
2023/04/15 11:10:29;;;;;;;4.05;1.70;;;10.20;99.90;;;;;;5154939;27;20046;-58
2023/04/15 11:13:02;;;;;;;5.28;2.50;;;10.20;99.90;;;;;;5155892;27;20384;-58
2023/04/15 11:15:33;;;;;;;4.15;2.00;;;10.30;99.90;;;;;;5151878;27;20030;-58
2023/04/15 11:18:17;;;;;;;6.95;2.42;;;10.30;99.90;;;;;;5144943;27;20066;-57
2023/04/15 11:20:55;;;;;;;8.60;1.88;;;10.30;99.90;;;;;;5143749;27;20031;-58
2023/04/15 11:23:34;;;;;;;8.57;1.90;;;10.30;99.90;;;;;;5126689;27;20030;-59
2023/04/15 11:26:02;;;;;;;8.90;2.55;;;10.40;99.90;;;;;;5120345;27;20039;-59
2023/04/15 11:28:29;;;;;;;6.32;2.25;;;10.50;99.90;;;;;;5151927;27;20106;-59
2023/04/15 11:30:55;;;;;;;6.07;1.98;;;10.50;99.90;;;;;;5110430;27;20093;-58
2023/04/15 11:33:22;;;;;;;9.38;1.60;;;10.50;99.90;;;;;;5098410;27;20126;-58
2023/04/15 11:35:51;;;;;;;5.40;1.70;;;10.50;99.90;;;;;;5141499;27;20122;-59
2023/04/15 11:38:17;;;;;;;7.00;1.50;;;10.60;99.90;;;;;;5134501;27;20039;-58
2023/04/15 11:40:43;;;;;;;6.10;1.55;;;10.50;99.90;;;;;;5151380;27;20034;-58
2023/04/15 11:43:14;;;;;;;11.65;2.53;;;10.60;99.90;;;;;;5126696;27;20054;-58
2023/04/15 11:45:56;;;;;;;4.63;1.63;;;10.50;99.90;;;;;;5144582;27;20034;-58
2023/04/15 11:48:25;;;;;;;8.52;1.55;;;10.50;99.90;;;;;;5147246;27;20062;-60
2023/04/15 11:51:03;;;;;;;10.23;2.03;;;10.50;99.90;;;;;;5146078;27;20035;-60
2023/04/15 11:53:55;;;;;;;4.38;1.85;;;10.50;99.90;;;;;;5143957;27;20047;-61
2023/04/15 11:56:23;;;;;;;7.80;2.63;;;10.50;99.90;;;;;;5116410;27;20115;-58
2023/04/15 11:58:55;;;;;;;8.32;2.28;;;10.40;99.90;;;;;;5108708;27;20220;-60
2023/04/15 12:01:41;;;;;;;8.18;1.98;;;10.40;99.90;;;;;;5146535;27;20034;-58
2023/04/15 12:04:22;;;;;;;6.35;1.50;;;10.50;99.90;;;;;;5126015;27;20064;-60
2023/04/15 12:06:47;;;;;;;6.35;1.45;;;10.50;99.90;;;;;;5124536;27;20086;-58
2023/04/15 12:09:15;;;;;;;6.70;1.63;;;10.50;99.90;;;;;;5150242;27;20042;-61
2023/04/15 12:11:49;;;;;;;9.10;2.08;;;10.60;99.90;;;;;;5142515;27;20035;-59
2023/04/15 12:14:28;;;;;;;4.80;1.30;;;10.50;99.90;;;;;;5149383;27;20069;-58
2023/04/15 12:17:04;;;;;;;6.68;2.00;;;10.60;99.90;;;;;;5149550;27;20043;-58
2023/04/15 12:19:40;;;;;;;6.20;1.73;;;10.70;99.90;;;;;;5133990;27;20432;-60
2023/04/15 12:22:11;;;;;;;5.65;1.75;;;10.70;99.90;;;;;;5150047;27;20113;-60
2023/04/15 12:24:37;;;;;;;8.57;2.47;;;10.60;99.90;;;;;;5148530;27;20063;-60
2023/04/15 12:27:10;;;;;;;7.53;1.80;;;10.60;99.90;;;;;;5129702;27;20129;-60
2023/04/15 12:29:39;;;;;;;7.45;1.80;;;10.60;99.90;;;;;;5145540;27;20392;-60
2023/04/15 12:32:06;;;;;;;2.80;1.40;;;10.70;99.90;;;;;;5143912;27;20049;-60
2023/04/15 12:34:35;;;;;;;4.57;1.80;;;10.70;99.90;;;;;;5117211;27;20059;-60
2023/04/15 12:37:02;;;;;;;7.90;2.08;;;10.70;99.90;;;;;;5105717;28;20124;-61
2023/04/15 12:39:33;;;;;;;7.97;1.88;;;10.80;99.90;;;;;;5100261;28;20385;-60
2023/04/15 12:42:00;;;;;;;8.02;1.55;;;10.90;99.90;;;;;;5099782;28;20075;-61
2023/04/15 12:44:26;;;;;;;7.63;1.83;;;10.80;99.90;;;;;;5103677;28;20118;-61
2023/04/15 12:46:52;;;;;;;14.75;3.05;;;10.80;99.90;;;;;;5099873;28;20119;-61